Time;durP1;ratioP1;P1;durP2;ratioP2;P2;SDS_P1;SDS_P2;PMS_P1;PMS_P2;Temp;Humidity;BMP_temperature;BMP_pressure;BME280_temperature;BME280_humidity;BME280_pressure;Samples;Min_cycle;Max_cycle;Signal;HPM_P1;HPM_P2
2022/10/31 00:00:22;;;;;;;36.80;20.50;;;;;;;;;;5091275;28;20059;-68
2022/10/31 00:02:48;;;;;;;;;;;;;;;;;;5091055;28;20480;-68
2022/10/31 00:05:14;;;;;;;32.80;19.70;;;;;;;;;;5090701;28;19920;-68
2022/10/31 00:07:40;;;;;;;37.08;21.70;;;;;;;;;;5091274;28;20047;-68
2022/10/31 00:10:06;;;;;;;38.53;21.98;;;;;;;;;;5091195;28;20051;-68
2022/10/31 00:12:33;;;;;;;35.85;21.58;;;;;;;;;;5090703;28;20048;-67
2022/10/31 00:14:59;;;;;;;35.00;22.13;;;;;;;;;;5090728;28;20092;-68
2022/10/31 00:17:25;;;;;;;41.33;22.45;;;;;;;;;;5091342;28;20079;-67
2022/10/31 00:19:51;;;;;;;41.15;23.13;;;;;;;;;;5090594;28;20401;-68
2022/10/31 00:22:17;;;;;;;39.10;24.42;;;;;;;;;;5090789;28;20055;-68
2022/10/31 00:24:43;;;;;;;44.13;24.45;;;;;;;;;;5090399;28;20070;-70
2022/10/31 00:27:09;;;;;;;43.92;24.98;;;;;;;;;;5090404;28;20193;-70
2022/10/31 00:29:35;;;;;;;36.05;22.92;;;;;;;;;;5090487;28;20079;-71
2022/10/31 00:32:01;;;;;;;35.92;22.80;;;;;;;;;;5090323;28;20067;-70
2022/10/31 00:34:27;;;;;;;40.72;25.15;;;;;;;;;;5088969;28;20036;-71
2022/10/31 00:36:53;;;;;;;38.47;24.75;;;;;;;;;;5090048;28;20040;-70
2022/10/31 00:39:19;;;;;;;40.20;24.55;;;;;;;;;;5088514;28;20147;-70
2022/10/31 00:41:45;;;;;;;37.90;24.92;;;;;;;;;;5090002;28;20083;-70
2022/10/31 00:44:11;;;;;;;45.75;26.80;;;;;;;;;;5090239;28;20084;-70
2022/10/31 00:46:37;;;;;;;39.42;25.45;;;;;;;;;;5090175;28;20071;-70
2022/10/31 00:49:03;;;;;;;46.83;27.80;;;;;;;;;;5090021;28;20412;-71
2022/10/31 00:51:29;;;;;;;37.58;25.33;;;;;;;;;;5090233;28;20379;-71
2022/10/31 00:53:55;;;;;;;43.97;25.15;;;;;;;;;;5092260;28;20437;-70
2022/10/31 00:56:21;;;;;;;41.08;25.95;;;;;;;;;;5093776;28;20488;-70
2022/10/31 00:58:47;;;;;;;43.85;27.20;;;;;;;;;;5093884;28;20044;-70
2022/10/31 01:01:13;;;;;;;41.15;26.33;;;;;;;;;;5093583;28;20071;-71
2022/10/31 01:03:39;;;;;;;42.45;27.80;;;;;;;;;;5093247;28;20120;-70
2022/10/31 01:06:05;;;;;;;;;;;;;;;;;;5095613;28;20043;-70
2022/10/31 01:08:31;;;;;;;40.33;25.23;;;;;;;;;;5094551;28;20342;-70
2022/10/31 01:11:02;;;;;;;41.13;26.55;;;;;;;;;;5093451;28;20040;-71
2022/10/31 01:13:28;;;;;;;44.15;26.80;;;;;;;;;;5093136;28;20465;-71
2022/10/31 01:15:55;;;;;;;40.97;24.70;;;;;;;;;;5093308;28;20141;-70
2022/10/31 01:18:21;;;;;;;38.10;24.25;;;;;;;;;;5092979;28;20055;-71
2022/10/31 01:20:47;;;;;;;38.63;25.13;;;;;;;;;;5093126;28;20079;-71
2022/10/31 01:23:13;;;;;;;42.75;25.20;;;;;;;;;;5093031;28;20056;-71
2022/10/31 01:25:40;;;;;;;42.60;26.13;;;;;;;;;;5092930;28;20048;-70
2022/10/31 01:28:06;;;;;;;44.10;26.02;;;;;;;;;;5093124;28;20104;-70
2022/10/31 01:30:32;;;;;;;41.35;24.90;;;;;;;;;;5092705;28;20063;-72
2022/10/31 01:32:58;;;;;;;;;;;;;;;;;;5093230;28;20048;-71
2022/10/31 01:35:24;;;;;;;43.88;25.83;;;;;;;;;;5092670;28;19920;-71
2022/10/31 01:37:50;;;;;;;42.05;25.58;;;;;;;;;;5092617;28;20107;-70
2022/10/31 01:40:16;;;;;;;37.70;24.05;;;;;;;;;;5092606;28;20072;-71
2022/10/31 01:42:42;;;;;;;40.95;24.92;;;;;;;;;;5092697;28;20384;-70
2022/10/31 01:45:10;;;;;;;43.22;25.63;;;;;;;;;;5092933;28;20376;-70
2022/10/31 01:47:39;;;;;;;37.97;22.70;;;;;;;;;;5092463;28;20044;-71
2022/10/31 01:50:10;;;;;;;35.78;23.67;;;;;;;;;;5091185;28;20383;-71
2022/10/31 01:52:41;;;;;;;42.30;25.25;;;;;;;;;;5092390;28;20048;-71
2022/10/31 01:55:09;;;;;;;34.33;22.48;;;;;;;;;;5092494;28;20058;-71
2022/10/31 01:57:36;;;;;;;34.28;22.67;;;;;;;;;;5092546;28;20055;-71
2022/10/31 02:00:05;;;;;;;36.53;21.85;;;;;;;;;;5092065;28;20124;-71
2022/10/31 02:02:32;;;;;;;39.03;22.33;;;;;;;;;;5092206;28;20131;-71
2022/10/31 02:05:00;;;;;;;41.22;24.00;;;;;;;;;;5092003;28;20048;-71
2022/10/31 02:07:30;;;;;;;35.85;22.73;;;;;;;;;;5090651;28;20374;-71
2022/10/31 02:09:57;;;;;;;36.70;22.35;;;;;;;;;;5091940;28;20040;-70
2022/10/31 02:12:23;;;;;;;35.20;22.92;;;;;;;;;;5091519;28;20043;-69
2022/10/31 02:14:49;;;;;;;34.05;23.52;;;;;;;;;;5091858;28;20456;-70
2022/10/31 02:17:15;;;;;;;40.55;23.73;;;;;;;;;;5090410;28;20341;-71
2022/10/31 02:19:50;;;;;;;35.50;21.63;;;;;;;;;;5091812;28;20115;-71
2022/10/31 02:22:16;;;;;;;34.80;22.38;;;;;;;;;;5091771;28;20048;-70
2022/10/31 02:24:45;;;;;;;36.75;22.45;;;;;;;;;;5090320;28;20048;-70
2022/10/31 02:27:11;;;;;;;35.72;22.08;;;;;;;;;;5091453;28;20213;-70
2022/10/31 02:29:40;;;;;;;38.70;22.83;;;;;;;;;;5091445;28;20052;-70
2022/10/31 02:32:21;;;;;;;41.47;23.75;;;;;;;;;;5091459;28;20052;-71
2022/10/31 02:35:10;;;;;;;37.72;22.88;;;;;;;;;;5089647;28;20047;-70
2022/10/31 02:37:36;;;;;;;37.70;23.73;;;;;;;;;;5091359;28;20337;-71
2022/10/31 02:40:18;;;;;;;38.60;23.42;;;;;;;;;;5090961;28;20056;-70
2022/10/31 02:42:55;;;;;;;38.42;23.33;;;;;;;;;;5091328;28;20048;-71
2022/10/31 02:45:30;;;;;;;40.53;23.20;;;;;;;;;;5091218;28;20046;-71
2022/10/31 02:47:59;;;;;;;42.20;23.98;;;;;;;;;;5091194;28;20048;-71
2022/10/31 02:50:31;;;;;;;44.63;25.38;;;;;;;;;;5091260;28;20052;-71
2022/10/31 02:52:57;;;;;;;39.35;23.70;;;;;;;;;;5091386;28;20040;-70
2022/10/31 02:55:23;;;;;;;40.92;25.17;;;;;;;;;;5091471;28;20051;-70
2022/10/31 02:57:49;;;;;;;37.63;24.17;;;;;;;;;;5091403;28;20056;-70
2022/10/31 03:00:15;;;;;;;43.42;23.55;;;;;;;;;;5091447;28;20138;-70
2022/10/31 03:03:01;;;;;;;38.30;24.52;;;;;;;;;;5124336;27;20036;-71
2022/10/31 03:05:27;;;;;;;36.97;24.88;;;;;;;;;;5083644;28;20192;-70
2022/10/31 03:07:53;;;;;;;41.72;24.80;;;;;;;;;;5091186;28;20140;-70
2022/10/31 03:10:37;;;;;;;37.15;24.05;;;;;;;;;;5090992;28;20131;-70
2022/10/31 03:13:11;;;;;;;41.60;25.40;;;;;;;;;;5091267;28;20126;-70
2022/10/31 03:15:39;;;;;;;39.33;23.85;;;;;;;;;;5090688;28;20052;-70
2022/10/31 03:18:08;;;;;;;41.65;25.27;;;;;;;;;;5090504;28;20364;-70
2022/10/31 03:20:42;;;;;;;38.80;24.17;;;;;;;;;;5090711;28;20070;-71
2022/10/31 03:23:11;;;;;;;36.90;23.92;;;;;;;;;;5089895;28;20090;-71
2022/10/31 03:25:38;;;;;;;36.13;22.83;;;;;;;;;;5090602;28;20039;-71
2022/10/31 03:28:05;;;;;;;41.28;26.08;;;;;;;;;;5088995;28;20044;-71
2022/10/31 03:30:34;;;;;;;42.60;25.92;;;;;;;;;;5090713;28;20051;-71
2022/10/31 03:33:01;;;;;;;43.33;24.90;;;;;;;;;;5090657;28;20064;-71
2022/10/31 03:35:28;;;;;;;40.72;26.55;;;;;;;;;;5090527;28;20052;-70
2022/10/31 03:37:55;;;;;;;37.10;24.35;;;;;;;;;;5090467;28;20040;-70
2022/10/31 03:40:23;;;;;;;38.90;24.83;;;;;;;;;;5090437;28;20055;-70
2022/10/31 03:42:53;;;;;;;36.55;23.90;;;;;;;;;;5090277;28;20053;-69
2022/10/31 03:45:25;;;;;;;36.83;23.80;;;;;;;;;;5090368;28;20047;-71
2022/10/31 03:47:52;;;;;;;38.38;24.30;;;;;;;;;;5090244;28;20086;-70
2022/10/31 03:50:19;;;;;;;35.55;23.98;;;;;;;;;;5123314;27;20044;-71
2022/10/31 03:52:50;;;;;;;38.95;23.83;;;;;;;;;;5090456;28;20056;-70
2022/10/31 03:55:22;;;;;;;39.20;24.20;;;;;;;;;;5090284;28;20048;-70
2022/10/31 03:58:07;;;;;;;36.45;22.58;;;;;;;;;;5089945;28;20440;-71
2022/10/31 04:00:34;;;;;;;42.72;25.13;;;;;;;;;;5089697;28;20380;-71
2022/10/31 04:03:08;;;;;;;35.92;23.95;;;;;;;;;;5090076;28;20083;-70
2022/10/31 04:05:35;;;;;;;35.92;23.45;;;;;;;;;;5089958;28;20059;-71
2022/10/31 04:08:03;;;;;;;38.33;23.55;;;;;;;;;;5090180;28;20157;-71
2022/10/31 04:10:30;;;;;;;35.08;22.10;;;;;;;;;;5090207;28;20188;-71
2022/10/31 04:12:58;;;;;;;34.30;22.80;;;;;;;;;;5090076;28;20048;-71
2022/10/31 04:15:25;;;;;;;36.88;23.23;;;;;;;;;;5072074;28;20117;-71
2022/10/31 04:17:54;;;;;;;33.80;21.67;;;;;;;;;;5089834;28;20181;-71
2022/10/31 04:20:29;;;;;;;37.70;23.75;;;;;;;;;;5088450;28;20044;-71
2022/10/31 04:22:55;;;;;;;39.72;22.88;;;;;;;;;;5090193;28;20098;-71
2022/10/31 04:25:21;;;;;;;38.20;22.33;;;;;;;;;;5090137;28;20148;-71
2022/10/31 04:27:47;;;;;;;35.42;21.92;;;;;;;;;;5089791;28;20116;-71
2022/10/31 04:30:14;;;;;;;40.33;22.83;;;;;;;;;;5092621;28;20066;-70
2022/10/31 04:32:40;;;;;;;32.38;22.73;;;;;;;;;;5093677;28;20132;-71
2022/10/31 04:35:06;;;;;;;33.55;22.40;;;;;;;;;;5094368;28;20060;-69
2022/10/31 04:37:32;;;;;;;33.63;22.17;;;;;;;;;;5126701;27;20044;-70
2022/10/31 04:39:58;;;;;;;36.72;22.75;;;;;;;;;;5093749;28;20129;-71
2022/10/31 04:42:24;;;;;;;37.55;23.25;;;;;;;;;;5093884;28;20048;-70
2022/10/31 04:44:50;;;;;;;38.40;23.83;;;;;;;;;;5092208;28;20107;-71
2022/10/31 04:47:16;;;;;;;42.47;24.15;;;;;;;;;;5092479;28;20181;-71
2022/10/31 04:49:42;;;;;;;35.33;23.20;;;;;;;;;;5093536;28;20139;-71
2022/10/31 04:52:08;;;;;;;34.83;23.45;;;;;;;;;;5093729;28;20052;-71
2022/10/31 04:54:34;;;;;;;36.35;22.80;;;;;;;;;;5093266;28;20468;-71
2022/10/31 04:57:00;;;;;;;36.25;23.60;;;;;;;;;;5093710;28;20344;-72
2022/10/31 04:59:26;;;;;;;34.15;24.13;;;;;;;;;;5093817;28;20048;-70
2022/10/31 05:01:52;;;;;;;39.58;23.83;;;;;;;;;;5093556;28;20154;-71
2022/10/31 05:04:18;;;;;;;36.63;23.75;;;;;;;;;;5093649;28;20044;-71
2022/10/31 05:06:44;;;;;;;38.50;24.42;;;;;;;;;;5093603;28;20075;-71
2022/10/31 05:09:10;;;;;;;35.40;23.05;;;;;;;;;;5093893;28;20338;-71
2022/10/31 05:11:36;;;;;;;37.25;24.73;;;;;;;;;;5093130;28;20480;-71
2022/10/31 05:14:02;;;;;;;36.08;22.25;;;;;;;;;;5093585;28;20406;-71
2022/10/31 05:16:28;;;;;;;38.67;23.48;;;;;;;;;;5093346;28;20048;-71
2022/10/31 05:18:54;;;;;;;42.05;25.98;;;;;;;;;;5091673;28;20040;-71
2022/10/31 05:21:20;;;;;;;39.08;24.13;;;;;;;;;;5093105;28;20455;-71
2022/10/31 05:23:47;;;;;;;42.13;26.13;;;;;;;;;;5093362;28;20135;-71
2022/10/31 05:26:13;;;;;;;39.33;24.30;;;;;;;;;;5093481;28;20115;-71
2022/10/31 05:28:39;;;;;;;41.17;24.52;;;;;;;;;;5093293;28;20036;-70
2022/10/31 05:31:05;;;;;;;38.33;23.55;;;;;;;;;;5093348;28;20078;-71
2022/10/31 05:33:31;;;;;;;35.45;23.92;;;;;;;;;;5093142;28;20067;-71
2022/10/31 05:35:57;;;;;;;38.97;25.70;;;;;;;;;;5093149;28;20087;-71
2022/10/31 05:38:23;;;;;;;39.40;25.33;;;;;;;;;;5093033;28;20044;-71
2022/10/31 05:40:49;;;;;;;39.00;26.15;;;;;;;;;;5092041;28;20465;-71
2022/10/31 05:43:15;;;;;;;38.92;26.63;;;;;;;;;;5093019;28;20131;-71
2022/10/31 05:45:41;;;;;;;37.88;25.00;;;;;;;;;;5093018;28;20079;-71
2022/10/31 05:48:08;;;;;;;39.35;26.30;;;;;;;;;;5092950;28;20044;-71
2022/10/31 05:50:34;;;;;;;40.90;25.48;;;;;;;;;;5092603;28;20146;-71
2022/10/31 05:53:01;;;;;;;39.67;25.50;;;;;;;;;;5092865;28;20044;-71
2022/10/31 05:55:28;;;;;;;42.78;27.48;;;;;;;;;;5092515;28;20345;-71
2022/10/31 05:57:54;;;;;;;;;;;;;;;;;;5092988;28;20054;-71
2022/10/31 06:00:20;;;;;;;42.72;25.25;;;;;;;;;;5092556;28;20297;-71
2022/10/31 06:02:46;;;;;;;;;;;;;;;;;;5093103;28;20044;-71
2022/10/31 06:05:13;;;;;;;38.38;25.67;;;;;;;;;;5092656;28;19924;-70
2022/10/31 06:07:39;;;;;;;43.03;27.85;;;;;;;;;;5092669;28;20036;-71
2022/10/31 06:10:06;;;;;;;36.42;27.05;;;;;;;;;;5092500;28;20082;-70
2022/10/31 06:12:37;;;;;;;42.67;27.35;;;;;;;;;;5092578;28;20338;-71
2022/10/31 06:15:03;;;;;;;42.53;27.15;;;;;;;;;;5091270;28;20079;-71
2022/10/31 06:17:29;;;;;;;39.55;26.52;;;;;;;;;;5090865;28;20044;-71
2022/10/31 06:19:55;;;;;;;39.28;26.92;;;;;;;;;;5092381;28;20155;-70
2022/10/31 06:22:22;;;;;;;38.10;25.42;;;;;;;;;;5092144;28;20044;-71
2022/10/31 06:24:48;;;;;;;40.85;26.80;;;;;;;;;;5091889;28;20040;-71
2022/10/31 06:27:14;;;;;;;42.47;29.00;;;;;;;;;;5091810;28;20135;-71
2022/10/31 06:29:40;;;;;;;44.60;28.38;;;;;;;;;;5091707;28;20123;-70
2022/10/31 06:32:06;;;;;;;37.83;26.77;;;;;;;;;;5091709;28;20437;-71
2022/10/31 06:34:32;;;;;;;45.15;27.08;;;;;;;;;;5091774;28;20144;-71
2022/10/31 06:36:58;;;;;;;41.63;29.27;;;;;;;;;;5124178;27;20079;-71
2022/10/31 06:39:24;;;;;;;41.63;27.88;;;;;;;;;;5090456;28;20154;-70
2022/10/31 06:41:50;;;;;;;41.72;26.83;;;;;;;;;;5091583;28;20056;-72
2022/10/31 06:44:16;;;;;;;42.53;27.02;;;;;;;;;;5091982;28;20048;-72
2022/10/31 06:46:42;;;;;;;38.70;26.55;;;;;;;;;;5091730;28;20087;-71
2022/10/31 06:49:08;;;;;;;41.58;28.38;;;;;;;;;;5091886;28;20353;-72
2022/10/31 06:51:34;;;;;;;39.83;27.55;;;;;;;;;;5091107;28;20044;-71
2022/10/31 06:54:00;;;;;;;36.45;27.15;;;;;;;;;;5089972;28;20044;-73
2022/10/31 06:56:26;;;;;;;41.53;26.92;;;;;;;;;;5091692;28;20152;-72
2022/10/31 06:58:52;;;;;;;40.63;28.52;;;;;;;;;;5091472;28;20147;-71
2022/10/31 07:01:18;;;;;;;49.60;33.90;;;;;;;;;;5091639;28;20044;-72
2022/10/31 07:03:44;;;;;;;49.25;34.30;;;;;;;;;;5092237;28;20048;-71
2022/10/31 07:06:10;;;;;;;42.47;30.05;;;;;;;;;;5090115;28;20047;-72
2022/10/31 07:08:36;;;;;;;46.65;29.55;;;;;;;;;;5091711;28;20046;-72
2022/10/31 07:11:02;;;;;;;45.15;28.77;;;;;;;;;;5091589;28;20131;-73
2022/10/31 07:13:28;;;;;;;44.78;28.15;;;;;;;;;;5091730;28;20098;-71
2022/10/31 07:15:55;;;;;;;37.63;27.50;;;;;;;;;;5091300;28;20067;-71
2022/10/31 07:18:22;;;;;;;39.60;27.15;;;;;;;;;;5091074;28;20040;-71
2022/10/31 07:20:48;;;;;;;37.90;25.63;;;;;;;;;;5089532;28;20048;-72
2022/10/31 07:23:14;;;;;;;38.90;27.65;;;;;;;;;;5090875;28;20047;-72
2022/10/31 07:25:41;;;;;;;43.17;28.08;;;;;;;;;;5089578;28;20036;-71
2022/10/31 07:28:07;;;;;;;;;;;;;;;;;;5091227;28;20040;-72
2022/10/31 07:30:33;;;;;;;38.00;26.10;;;;;;;;;;5091053;28;20014;-72
2022/10/31 07:32:59;;;;;;;42.80;26.88;;;;;;;;;;5090666;28;20036;-72
2022/10/31 07:35:26;;;;;;;39.13;26.73;;;;;;;;;;5091206;28;20100;-72
2022/10/31 07:37:52;;;;;;;37.75;26.25;;;;;;;;;;5090840;28;20131;-72
2022/10/31 07:40:20;;;;;;;45.95;29.70;;;;;;;;;;5090339;28;20043;-71
2022/10/31 07:42:46;;;;;;;;;;;;;;;;;;5090712;28;20425;-72
2022/10/31 07:45:13;;;;;;;39.85;27.63;;;;;;;;;;5090722;28;19934;-69
2022/10/31 07:47:43;;;;;;;46.08;31.05;;;;;;;;;;5090875;28;20036;-72
2022/10/31 07:50:10;;;;;;;43.03;28.95;;;;;;;;;;5090877;28;20170;-72
2022/10/31 07:52:36;;;;;;;45.58;29.92;;;;;;;;;;5089958;28;20052;-71
2022/10/31 07:55:03;;;;;;;42.85;28.92;;;;;;;;;;5090132;28;20130;-71
2022/10/31 07:57:29;;;;;;;42.28;29.27;;;;;;;;;;5090473;28;20127;-71
2022/10/31 07:59:55;;;;;;;40.00;28.63;;;;;;;;;;5090374;28;20048;-73
2022/10/31 08:02:21;;;;;;;43.63;30.38;;;;;;;;;;5088952;28;20048;-70
2022/10/31 08:04:47;;;;;;;38.42;26.55;;;;;;;;;;5088920;28;20048;-72
2022/10/31 08:07:13;;;;;;;54.42;29.75;;;;;;;;;;5090151;28;20127;-73
2022/10/31 08:09:39;;;;;;;39.15;28.67;;;;;;;;;;5090261;28;20158;-70
2022/10/31 08:12:05;;;;;;;43.67;29.27;;;;;;;;;;5089685;28;20125;-70
2022/10/31 08:14:31;;;;;;;;;;;;;;;;;;5090214;28;20093;-71
2022/10/31 08:16:57;;;;;;;43.95;27.58;;;;;;;;;;5089376;28;19924;-72
2022/10/31 08:19:23;;;;;;;39.35;27.42;;;;;;;;;;5089376;28;20083;-71
2022/10/31 08:21:54;;;;;;;38.92;27.52;;;;;;;;;;5089489;28;20092;-72
2022/10/31 08:24:21;;;;;;;46.00;28.52;;;;;;;;;;5091032;28;20121;-72
2022/10/31 08:26:47;;;;;;;;;;;;;;;;;;5090710;28;20369;-71
2022/10/31 08:29:14;;;;;;;42.88;27.55;;;;;;;;;;5089090;28;19932;-71
2022/10/31 08:31:40;;;;;;;39.65;26.85;;;;;;;;;;5090254;28;20198;-72
2022/10/31 08:34:06;;;;;;;38.20;27.30;;;;;;;;;;5091044;28;20348;-72
2022/10/31 08:36:33;;;;;;;40.08;28.10;;;;;;;;;;5091552;28;20055;-72
2022/10/31 08:38:59;;;;;;;;;;;;;;;;;;5090655;28;20040;-72
2022/10/31 08:41:25;;;;;;;38.35;26.77;;;;;;;;;;5089273;28;19927;-71
2022/10/31 08:43:51;;;;;;;37.25;26.30;;;;;;;;;;5089368;28;20048;-72
2022/10/31 08:46:17;;;;;;;36.35;26.63;;;;;;;;;;5087867;28;20048;-75
2022/10/31 08:48:43;;;;;;;;;;;;;;;;;;5088529;28;20359;-72
2022/10/31 08:51:10;;;;;;;37.00;25.50;;;;;;;;;;5089549;28;19920;-73
2022/10/31 08:53:36;;;;;;;33.28;24.55;;;;;;;;;;5089106;28;20051;-72
2022/10/31 08:56:02;;;;;;;35.17;25.35;;;;;;;;;;5089181;28;20126;-74
2022/10/31 08:58:28;;;;;;;37.55;26.30;;;;;;;;;;5089341;28;20089;-74
2022/10/31 09:00:56;;;;;;;41.03;25.92;;;;;;;;;;5089581;28;20126;-72
2022/10/31 09:03:23;;;;;;;36.45;25.75;;;;;;;;;;5090338;28;20060;-73
2022/10/31 09:05:50;;;;;;;39.72;24.67;;;;;;;;;;5090360;28;20044;-74
2022/10/31 09:08:16;;;;;;;39.83;24.77;;;;;;;;;;5123131;28;20138;-72
2022/10/31 09:10:43;;;;;;;37.10;23.77;;;;;;;;;;5089588;28;20047;-74
2022/10/31 09:13:09;;;;;;;33.63;23.52;;;;;;;;;;5088808;28;20125;-73
2022/10/31 09:15:36;;;;;;;34.10;22.70;;;;;;;;;;5092495;28;20464;-71
2022/10/31 09:18:02;;;;;;;32.85;22.27;;;;;;;;;;5094151;28;20488;-75
2022/10/31 09:20:29;;;;;;;37.10;23.63;;;;;;;;;;5092881;28;20406;-74
2022/10/31 09:22:55;;;;;;;;;;;;;;;;;;5094862;28;20075;-73
2022/10/31 09:25:21;;;;;;;31.48;22.33;;;;;;;;;;5093790;28;19927;-76
2022/10/31 09:27:47;;;;;;;31.67;22.50;;;;;;;;;;5094038;28;20051;-72
2022/10/31 09:30:13;;;;;;;30.02;22.13;;;;;;;;;;5093429;28;20051;-73
2022/10/31 09:32:39;;;;;;;32.15;22.27;;;;;;;;;;5092044;28;20086;-67
2022/10/31 09:35:05;;;;;;;30.92;22.08;;;;;;;;;;5091185;28;20040;-72
2022/10/31 09:37:31;;;;;;;;;;;;;;;;;;5092220;28;20075;-71
2022/10/31 09:39:57;;;;;;;32.40;21.42;;;;;;;;;;5092742;28;19927;-71
2022/10/31 09:42:32;;;;;;;30.33;20.25;;;;;;;;;;5092214;28;20251;-75
2022/10/31 09:45:07;;;;;;;30.45;21.48;;;;;;;;;;5093751;28;20109;-74
2022/10/31 09:47:45;;;;;;;34.92;20.88;;;;;;;;;;5092730;28;20191;-74
2022/10/31 09:50:18;;;;;;;32.55;22.10;;;;;;;;;;5091270;28;20441;-74
2022/10/31 09:52:54;;;;;;;30.90;21.27;;;;;;;;;;5092657;28;20048;-71
2022/10/31 09:55:43;;;;;;;31.42;19.75;;;;;;;;;;5093306;28;20059;-74
2022/10/31 09:58:14;;;;;;;27.13;18.35;;;;;;;;;;5095812;28;20382;-68
2022/10/31 10:00:40;;;;;;;28.60;19.95;;;;;;;;;;5096644;28;20101;-68
2022/10/31 10:03:15;;;;;;;31.50;20.23;;;;;;;;;;5095843;28;20097;-67
2022/10/31 10:05:47;;;;;;;30.73;20.60;;;;;;;;;;5095593;28;20488;-68
2022/10/31 10:08:17;;;;;;;29.33;20.10;;;;;;;;;;5096505;28;20040;-68
2022/10/31 10:10:46;;;;;;;34.92;21.38;;;;;;;;;;5095671;28;20052;-66
2022/10/31 10:13:26;;;;;;;31.77;19.33;;;;;;;;;;5094626;28;20051;-71
2022/10/31 10:15:52;;;;;;;28.17;19.02;;;;;;;;;;5095845;28;20054;-71
2022/10/31 10:18:18;;;;;;;29.73;19.75;;;;;;;;;;5095742;28;20472;-69
2022/10/31 10:20:55;;;;;;;26.73;18.73;;;;;;;;;;5095669;28;20044;-71
2022/10/31 10:23:33;;;;;;;27.70;18.98;;;;;;;;;;5095084;28;20063;-69
2022/10/31 10:26:02;;;;;;;25.38;18.45;;;;;;;;;;5094668;28;20385;-71
2022/10/31 10:28:38;;;;;;;23.10;16.52;;;;;;;;;;5095603;28;20051;-70
2022/10/31 10:31:09;;;;;;;27.63;16.48;;;;;;;;;;5095633;28;20047;-69
2022/10/31 10:33:58;;;;;;;26.33;16.98;;;;;;;;;;5096060;28;20090;-71
2022/10/31 10:36:34;;;;;;;25.45;15.30;;;;;;;;;;5089943;28;20083;-69
2022/10/31 10:39:03;;;;;;;23.52;16.42;;;;;;;;;;5095222;28;20048;-70
2022/10/31 10:41:31;;;;;;;29.80;18.75;;;;;;;;;;5095163;28;20051;-68
2022/10/31 10:43:57;;;;;;;24.90;18.08;;;;;;;;;;5095784;28;20062;-69
2022/10/31 10:49:11;;;;;;;27.67;18.38;;;;;;;;;;5095739;28;20051;-68
2022/10/31 10:51:59;;;;;;;30.55;18.25;;;;;;;;;;5094962;28;20094;-73
2022/10/31 10:54:25;;;;;;;28.67;19.10;;;;;;;;;;5095113;28;20483;-70
2022/10/31 10:56:51;;;;;;;29.63;19.88;;;;;;;;;;5094868;28;20043;-71
2022/10/31 10:59:20;;;;;;;28.08;19.55;;;;;;;;;;5095025;28;20044;-71
2022/10/31 11:01:46;;;;;;;32.08;20.95;;;;;;;;;;5095465;28;20040;-68
2022/10/31 11:04:12;;;;;;;;;;;;;;;;;;5095333;28;20102;-71
2022/10/31 11:06:38;;;;;;;28.83;21.17;;;;;;;;;;5094777;28;19920;-76
2022/10/31 11:09:10;;;;;;;74.38;27.48;;;;;;;;;;5094848;28;20399;-69
2022/10/31 11:11:39;;;;;;;35.63;23.08;;;;;;;;;;5094785;28;20044;-72
2022/10/31 11:14:11;;;;;;;30.38;21.95;;;;;;;;;;5094841;28;20113;-72
2022/10/31 11:16:40;;;;;;;29.90;21.95;;;;;;;;;;5095238;28;20381;-69
2022/10/31 11:19:12;;;;;;;30.38;20.70;;;;;;;;;;5095250;28;20040;-71
2022/10/31 11:21:38;;;;;;;30.83;19.63;;;;;;;;;;5094796;28;20103;-71
2022/10/31 11:24:10;;;;;;;29.00;18.42;;;;;;;;;;5095021;28;20047;-73
2022/10/31 11:26:41;;;;;;;27.98;18.75;;;;;;;;;;5094741;28;20090;-73
2022/10/31 11:29:20;;;;;;;27.70;17.38;;;;;;;;;;5093859;28;20385;-72
2022/10/31 11:31:48;;;;;;;30.38;17.50;;;;;;;;;;5094304;28;20047;-68
2022/10/31 11:34:29;;;;;;;25.58;16.60;;;;;;;;;;5094314;28;20056;-71
2022/10/31 11:36:57;;;;;;;26.55;16.83;;;;;;;;;;5093804;28;20150;-72
2022/10/31 11:39:24;;;;;;;28.02;17.90;;;;;;;;;;5094789;28;20047;-70
2022/10/31 11:41:52;;;;;;;25.58;17.02;;;;;;;;;;5094536;28;20056;-71
2022/10/31 11:44:23;;;;;;;29.92;17.40;;;;;;;;;;5094636;28;20503;-72
2022/10/31 11:46:50;;;;;;;26.40;17.90;;;;;;;;;;5093067;28;20055;-71
2022/10/31 11:49:18;;;;;;;29.90;17.50;;;;;;;;;;5094025;28;20044;-71
2022/10/31 11:51:48;;;;;;;25.55;15.55;;;;;;;;;;5093954;28;20399;-68
2022/10/31 11:54:20;;;;;;;22.00;13.73;;;;;;;;;;5093913;28;20043;-70
2022/10/31 11:56:46;;;;;;;22.83;13.23;;;;;;;;;;5093946;28;20044;-71
2022/10/31 11:59:17;;;;;;;19.05;11.63;;;;;;;;;;5093970;28;20056;-69
2022/10/31 12:01:47;;;;;;;17.55;10.52;;;;;;;;;;5092643;28;20040;-69
2022/10/31 12:04:14;;;;;;;18.35;10.40;;;;;;;;;;5094066;28;20047;-69
2022/10/31 12:06:42;;;;;;;22.15;10.85;;;;;;;;;;5094240;28;20043;-69
2022/10/31 12:09:19;;;;;;;18.33;10.07;;;;;;;;;;5093617;28;20499;-70
2022/10/31 12:11:57;;;;;;;16.83;9.25;;;;;;;;;;5091498;28;20052;-72
2022/10/31 12:14:23;;;;;;;18.30;8.88;;;;;;;;;;5093941;28;20059;-68
2022/10/31 12:16:50;;;;;;;19.00;9.52;;;;;;;;;;5092027;28;20056;-72
2022/10/31 12:19:16;;;;;;;;;;;;;;;;;;5093749;28;20131;-68
2022/10/31 12:21:48;;;;;;;20.42;9.38;;;;;;;;;;5092723;28;19966;-68
2022/10/31 12:24:33;;;;;;;20.38;8.73;;;;;;;;;;5093162;28;20044;-69
2022/10/31 12:27:18;;;;;;;23.85;9.70;;;;;;;;;;5093327;28;20052;-69
2022/10/31 12:29:46;;;;;;;19.60;10.07;;;;;;;;;;5093705;28;20056;-68
2022/10/31 12:32:29;;;;;;;17.77;8.75;;;;;;;;;;5093079;28;20561;-69
2022/10/31 12:35:07;;;;;;;19.80;10.13;;;;;;;;;;5093848;28;20426;-69
2022/10/31 12:37:52;;;;;;;18.75;9.95;;;;;;;;;;5090752;28;20055;-68
2022/10/31 12:40:36;;;;;;;22.45;11.07;;;;;;;;;;5093402;28;20044;-68
2022/10/31 12:43:22;;;;;;;22.95;10.95;;;;;;;;;;5092047;28;20205;-70
2022/10/31 12:45:56;;;;;;;22.75;10.40;;;;;;;;;;5092246;28;20084;-69
2022/10/31 12:48:29;;;;;;;19.27;10.38;;;;;;;;;;5092470;28;20048;-69
2022/10/31 12:51:00;;;;;;;21.88;10.05;;;;;;;;;;5095907;28;20066;-72
2022/10/31 12:53:42;;;;;;;20.08;10.30;;;;;;;;;;5079621;28;20048;-70
2022/10/31 12:56:08;;;;;;;21.20;10.80;;;;;;;;;;5096721;28;20047;-69
2022/10/31 12:58:40;;;;;;;21.42;10.65;;;;;;;;;;5096733;28;20040;-69
2022/10/31 13:01:10;;;;;;;22.58;10.40;;;;;;;;;;5095031;28;20048;-69
2022/10/31 13:03:48;;;;;;;26.05;10.70;;;;;;;;;;5096579;28;20040;-67
2022/10/31 13:06:18;;;;;;;17.98;7.50;;;;;;;;;;5094854;28;20040;-70
2022/10/31 13:08:48;;;;;;;19.33;8.98;;;;;;;;;;5095248;28;20043;-68
2022/10/31 13:11:23;;;;;;;22.27;8.05;;;;;;;;;;5096236;28;20052;-69
2022/10/31 13:14:00;;;;;;;22.17;7.95;;;;;;;;;;5096380;28;20134;-69
2022/10/31 13:16:29;;;;;;;24.20;9.18;;;;;;;;;;5096035;28;20086;-71
2022/10/31 13:18:58;;;;;;;19.65;8.77;;;;;;;;;;5077730;28;20044;-69
2022/10/31 13:21:30;;;;;;;19.70;8.93;;;;;;;;;;5078567;28;20403;-70
2022/10/31 13:23:59;;;;;;;19.83;7.75;;;;;;;;;;5096580;28;20093;-70
2022/10/31 13:26:28;;;;;;;18.65;7.13;;;;;;;;;;5096048;28;20055;-73
2022/10/31 13:29:04;;;;;;;22.05;9.40;;;;;;;;;;5096472;28;20150;-69
2022/10/31 13:31:30;;;;;;;17.17;7.18;;;;;;;;;;5094773;28;20131;-68
2022/10/31 13:33:58;;;;;;;23.00;7.40;;;;;;;;;;5095783;28;20044;-70
2022/10/31 13:36:29;;;;;;;18.10;7.25;;;;;;;;;;5095975;28;20134;-69
2022/10/31 13:38:58;;;;;;;19.25;7.07;;;;;;;;;;5096615;28;20194;-71
2022/10/31 13:41:58;;;;;;;21.75;7.10;;;;;;;;;;5094586;28;20048;-69
2022/10/31 13:44:25;;;;;;;21.13;7.63;;;;;;;;;;5083018;28;20095;-69
2022/10/31 13:46:52;;;;;;;16.25;6.90;;;;;;;;;;5095641;28;20142;-70
2022/10/31 13:49:30;;;;;;;21.80;7.40;;;;;;;;;;5096249;28;20456;-70
2022/10/31 13:52:12;;;;;;;19.38;7.20;;;;;;;;;;5095470;28;20048;-67
2022/10/31 13:54:39;;;;;;;23.02;6.97;;;;;;;;;;5094573;28;20447;-70
2022/10/31 13:57:16;;;;;;;20.60;7.93;;;;;;;;;;5094604;28;20377;-72
2022/10/31 13:59:48;;;;;;;17.50;7.43;;;;;;;;;;5094861;28;20105;-69
2022/10/31 14:02:18;;;;;;;22.20;7.70;;;;;;;;;;5094751;28;20605;-70
2022/10/31 14:04:56;;;;;;;17.98;6.55;;;;;;;;;;5128071;27;20040;-68
2022/10/31 14:07:23;;;;;;;23.75;7.60;;;;;;;;;;5095052;28;20044;-71
2022/10/31 14:09:52;;;;;;;15.68;6.88;;;;;;;;;;5094218;28;20094;-70
2022/10/31 14:12:27;;;;;;;20.80;7.60;;;;;;;;;;5094026;28;20052;-71
2022/10/31 14:14:57;;;;;;;22.13;7.53;;;;;;;;;;5093781;28;20048;-71
2022/10/31 14:17:26;;;;;;;19.23;6.93;;;;;;;;;;5095708;28;20130;-71
2022/10/31 14:19:59;;;;;;;24.35;7.85;;;;;;;;;;5094778;28;20102;-70
2022/10/31 14:22:30;;;;;;;19.52;7.78;;;;;;;;;;5094184;28;20105;-72
2022/10/31 14:24:56;;;;;;;17.88;7.43;;;;;;;;;;5093547;28;20087;-70
2022/10/31 14:27:26;;;;;;;18.42;7.70;;;;;;;;;;5094196;28;20046;-70
2022/10/31 14:29:52;;;;;;;21.95;8.32;;;;;;;;;;5093030;28;20067;-69
2022/10/31 14:32:26;;;;;;;23.52;8.90;;;;;;;;;;5093966;28;20058;-70
2022/10/31 14:34:58;;;;;;;21.02;7.95;;;;;;;;;;5076442;28;20048;-71